createdAt,value
2023-06-30T00:00:23.040Z,7.40
2023-06-30T00:02:50.572Z,11.70
2023-06-30T00:05:18.105Z,8.75
2023-06-30T00:07:46.435Z,9.85
2023-06-30T00:10:13.857Z,11.02
2023-06-30T00:12:41.259Z,9.90
2023-06-30T00:15:10.685Z,8.57
2023-06-30T00:17:38.149Z,9.05
2023-06-30T00:20:07.558Z,9.32
2023-06-30T00:22:36.733Z,9.40
2023-06-30T00:25:04.669Z,10.05
2023-06-30T00:27:32.117Z,9.10
2023-06-30T00:29:59.525Z,9.77
2023-06-30T00:32:32.763Z,10.63
2023-06-30T00:35:00.434Z,13.45
2023-06-30T00:37:28.421Z,7.82
2023-06-30T00:39:56.044Z,13.80
2023-06-30T00:42:25.681Z,10.00
2023-06-30T00:44:55.352Z,8.90
2023-06-30T00:47:23.082Z,9.30
2023-06-30T00:49:54.784Z,8.60
2023-06-30T00:52:22.250Z,10.50
2023-06-30T00:54:49.740Z,15.02
2023-06-30T00:57:17.797Z,20.77
2023-06-30T00:59:45.643Z,18.48
2023-06-30T01:02:16.444Z,18.10
2023-06-30T01:04:49.146Z,20.33
2023-06-30T01:07:23.594Z,18.77
2023-06-30T01:09:56.118Z,17.50
2023-06-30T01:12:24.936Z,21.63
2023-06-30T01:14:52.841Z,21.15
2023-06-30T01:17:21.464Z,23.48
2023-06-30T01:19:50.338Z,23.33
2023-06-30T01:22:22.674Z,25.33
2023-06-30T01:24:51.617Z,26.40
2023-06-30T01:27:21.303Z,28.35
2023-06-30T01:29:49.576Z,29.67
2023-06-30T01:32:18.389Z,29.00
2023-06-30T01:34:46.074Z,28.42
2023-06-30T01:37:13.709Z,28.95
2023-06-30T01:39:42.530Z,25.98
2023-06-30T01:42:10.401Z,31.13
2023-06-30T01:44:38.193Z,29.50
2023-06-30T01:47:06.633Z,29.10
2023-06-30T01:49:34.611Z,29.73
2023-06-30T01:52:02.122Z,31.90
2023-06-30T01:54:29.594Z,30.98
2023-06-30T01:59:56.439Z,30.00
2023-06-30T02:02:23.950Z,30.50
2023-06-30T02:04:51.464Z,29.52
2023-06-30T02:07:18.995Z,35.67
2023-06-30T02:09:48.687Z,35.47
2023-06-30T02:12:18.053Z,32.72
2023-06-30T02:14:45.513Z,30.88
2023-06-30T02:17:13.168Z,31.25
2023-06-30T02:19:40.631Z,31.50
2023-06-30T02:22:08.071Z,30.63
2023-06-30T02:24:35.746Z,32.10
2023-06-30T02:27:03.145Z,33.65
2023-06-30T02:29:33.508Z,32.00
2023-06-30T02:32:00.924Z,33.53
2023-06-30T02:34:28.451Z,33.72
2023-06-30T02:36:55.913Z,31.85
2023-06-30T02:39:26.188Z,35.28
2023-06-30T02:41:55.426Z,35.97
2023-06-30T02:44:22.850Z,34.53
2023-06-30T02:46:51.960Z,34.47
2023-06-30T02:49:19.476Z,34.72
2023-06-30T02:51:46.915Z,34.17
2023-06-30T02:54:14.662Z,32.60
2023-06-30T02:56:42.118Z,33.10
2023-06-30T02:59:09.639Z,35.15
2023-06-30T03:01:37.236Z,37.45
2023-06-30T03:04:06.452Z,34.88
2023-06-30T03:06:35.326Z,36.25
2023-06-30T03:09:03.126Z,36.80
2023-06-30T03:11:31.941Z,34.95
2023-06-30T03:13:59.694Z,35.83
2023-06-30T03:16:33.501Z,36.67
2023-06-30T03:19:01.350Z,35.30
2023-06-30T03:21:30.112Z,37.72
2023-06-30T03:23:57.637Z,34.95
2023-06-30T03:26:25.297Z,37.90
2023-06-30T03:28:52.693Z,37.88
2023-06-30T03:31:20.327Z,37.22
2023-06-30T03:33:48.561Z,37.38
2023-06-30T03:36:16.009Z,38.22
2023-06-30T03:38:44.804Z,39.15
2023-06-30T03:41:12.345Z,35.55
2023-06-30T03:43:39.848Z,44.17
2023-06-30T03:46:07.297Z,38.50
2023-06-30T03:48:34.789Z,41.30
2023-06-30T03:51:02.185Z,35.85
2023-06-30T03:53:29.630Z,38.83
2023-06-30T03:55:59.892Z,34.42
2023-06-30T03:58:27.336Z,39.53
2023-06-30T04:00:55.911Z,38.42
2023-06-30T04:03:25.063Z,37.60
2023-06-30T04:05:54.434Z,37.38
2023-06-30T04:08:22.042Z,40.60
2023-06-30T04:10:50.089Z,38.55
2023-06-30T04:13:18.806Z,36.15
2023-06-30T04:15:46.517Z,38.03
2023-06-30T04:18:14.273Z,35.90
2023-06-30T04:20:41.674Z,36.20
2023-06-30T04:23:09.075Z,39.45
2023-06-30T04:25:36.909Z,38.10
2023-06-30T04:28:04.466Z,36.00
2023-06-30T04:30:33.220Z,41.53
2023-06-30T04:33:00.688Z,40.42
2023-06-30T04:35:28.189Z,38.08
2023-06-30T04:37:55.616Z,37.70
2023-06-30T04:40:23.041Z,34.38
2023-06-30T04:42:50.454Z,41.50
2023-06-30T04:45:19.111Z,42.00
2023-06-30T04:47:48.171Z,37.40
2023-06-30T04:50:15.801Z,36.13
2023-06-30T04:52:43.199Z,33.65
2023-06-30T04:55:11.341Z,33.75
2023-06-30T04:57:42.625Z,35.65
2023-06-30T05:00:11.351Z,33.42
2023-06-30T05:02:38.813Z,33.25
2023-06-30T05:05:09.166Z,36.13
2023-06-30T05:07:36.876Z,31.80
2023-06-30T05:10:04.457Z,35.00
2023-06-30T05:12:31.869Z,31.45
2023-06-30T05:14:59.310Z,34.03
2023-06-30T05:17:26.846Z,32.85
2023-06-30T05:19:54.423Z,32.80
2023-06-30T05:22:23.132Z,37.22
2023-06-30T05:24:50.549Z,37.00
2023-06-30T05:27:19.346Z,36.10
2023-06-30T05:29:46.853Z,32.25
2023-06-30T05:32:14.311Z,33.42
2023-06-30T05:34:43.843Z,38.65
2023-06-30T05:37:11.361Z,38.35
2023-06-30T05:39:40.284Z,35.45
2023-06-30T05:42:07.969Z,32.38
2023-06-30T05:44:35.515Z,35.28
2023-06-30T05:47:03.152Z,32.25
2023-06-30T05:49:30.655Z,34.53
2023-06-30T05:51:58.771Z,32.63
2023-06-30T05:54:26.258Z,32.42
2023-06-30T05:56:55.004Z,30.30
2023-06-30T05:59:22.442Z,31.42
2023-06-30T06:01:51.565Z,36.40
2023-06-30T06:04:19.570Z,32.97
2023-06-30T06:06:47.177Z,31.30
2023-06-30T06:09:14.602Z,29.15
2023-06-30T06:11:42.052Z,33.22
2023-06-30T06:14:10.790Z,36.42
2023-06-30T06:16:38.317Z,32.83
2023-06-30T06:19:05.830Z,30.98
2023-06-30T06:21:33.384Z,28.38
2023-06-30T06:24:00.783Z,31.52
2023-06-30T06:26:28.479Z,28.60
2023-06-30T06:28:56.275Z,29.85
2023-06-30T06:31:25.954Z,33.00
2023-06-30T06:33:55.824Z,27.50
2023-06-30T06:36:23.583Z,26.52
2023-06-30T06:38:51.017Z,27.40
2023-06-30T06:41:18.415Z,26.67
2023-06-30T06:43:45.827Z,27.70
2023-06-30T06:46:13.307Z,30.40
2023-06-30T06:48:42.044Z,27.55
2023-06-30T06:51:09.588Z,27.85
2023-06-30T06:53:37.457Z,28.55
2023-06-30T06:56:06.285Z,28.02
2023-06-30T06:58:36.334Z,29.92
2023-06-30T07:01:03.793Z,25.67
2023-06-30T07:03:31.374Z,27.00
2023-06-30T07:06:00.558Z,29.50
2023-06-30T07:08:29.405Z,26.42
2023-06-30T07:10:57.391Z,28.20
2023-06-30T07:13:24.938Z,30.88
2023-06-30T07:15:52.637Z,29.63
2023-06-30T07:18:20.974Z,27.35
2023-06-30T07:20:49.097Z,29.27
2023-06-30T07:23:18.265Z,31.85
2023-06-30T07:25:46.323Z,30.55
2023-06-30T07:28:14.496Z,28.52
2023-06-30T07:30:45.695Z,30.35
2023-06-30T07:33:13.619Z,27.95
2023-06-30T07:35:41.251Z,29.25
2023-06-30T07:38:08.739Z,25.98
2023-06-30T07:40:53.878Z,28.23
2023-06-30T07:43:23.034Z,25.67
2023-06-30T07:45:50.644Z,27.23
2023-06-30T07:48:18.193Z,27.30
2023-06-30T07:50:58.744Z,29.13
2023-06-30T07:53:33.160Z,27.10
2023-06-30T07:56:01.918Z,29.70
2023-06-30T07:58:29.447Z,28.92
2023-06-30T08:00:57.022Z,27.17
2023-06-30T08:03:24.875Z,28.27
2023-06-30T08:05:52.797Z,26.20
2023-06-30T08:08:21.046Z,30.95
2023-06-30T08:10:48.606Z,28.27
2023-06-30T08:13:17.489Z,26.23
2023-06-30T08:15:48.648Z,35.33
2023-06-30T08:18:31.786Z,30.10
2023-06-30T08:21:02.007Z,26.13
2023-06-30T08:23:29.602Z,28.20
2023-06-30T08:25:57.009Z,25.70
2023-06-30T08:28:25.800Z,26.15
2023-06-30T08:30:56.077Z,26.42
2023-06-30T08:33:39.705Z,29.48
2023-06-30T08:36:08.285Z,25.25
2023-06-30T08:38:35.771Z,26.13
2023-06-30T08:41:04.658Z,26.65
2023-06-30T08:43:34.165Z,25.98
2023-06-30T08:46:03.392Z,27.85
2023-06-30T08:48:32.154Z,29.23
2023-06-30T08:51:00.957Z,26.33
2023-06-30T08:53:30.245Z,30.20
2023-06-30T08:55:59.134Z,26.23
2023-06-30T08:58:27.360Z,26.35
2023-06-30T09:00:57.181Z,24.95
2023-06-30T09:03:24.900Z,27.35
2023-06-30T09:05:55.334Z,24.40
2023-06-30T09:08:29.326Z,24.92
2023-06-30T09:10:57.508Z,26.98
2023-06-30T09:13:25.958Z,28.13
2023-06-30T09:15:57.623Z,23.65
2023-06-30T09:18:25.444Z,27.27
2023-06-30T09:20:53.556Z,26.33
2023-06-30T09:23:21.047Z,26.75
2023-06-30T09:25:48.974Z,24.77
2023-06-30T09:28:16.839Z,25.48
2023-06-30T09:30:48.522Z,23.13
2023-06-30T09:33:18.437Z,23.77
2023-06-30T09:35:48.531Z,22.63
2023-06-30T09:38:19.492Z,26.95
2023-06-30T09:40:48.659Z,24.55
2023-06-30T09:43:18.073Z,23.90
2023-06-30T09:45:47.730Z,25.15
2023-06-30T09:48:16.880Z,27.58
2023-06-30T09:50:44.346Z,23.02
2023-06-30T09:53:11.921Z,26.48
2023-06-30T09:55:49.927Z,23.90
2023-06-30T09:58:17.976Z,26.02
2023-06-30T10:00:45.572Z,25.20
2023-06-30T10:03:16.536Z,28.15
2023-06-30T10:05:46.346Z,26.75
2023-06-30T10:08:14.600Z,27.08
2023-06-30T10:10:43.296Z,26.13
2023-06-30T10:13:12.876Z,26.13
2023-06-30T10:15:41.374Z,24.27
2023-06-30T10:18:11.573Z,31.98
2023-06-30T10:20:48.256Z,31.77
2023-06-30T10:23:19.512Z,27.02
2023-06-30T10:25:47.193Z,26.83
2023-06-30T10:28:15.836Z,25.58
2023-06-30T10:30:43.717Z,34.38
2023-06-30T10:33:11.242Z,58.00
2023-06-30T10:35:39.170Z,37.55
2023-06-30T10:38:06.837Z,34.25
2023-06-30T10:40:35.596Z,30.70
2023-06-30T10:43:07.540Z,35.13
2023-06-30T10:45:36.773Z,35.97
2023-06-30T10:48:10.292Z,39.83
2023-06-30T10:50:42.133Z,41.28
2023-06-30T10:53:09.643Z,44.10
2023-06-30T10:55:38.441Z,41.83
2023-06-30T10:58:06.326Z,51.40
2023-06-30T11:00:35.609Z,50.55
2023-06-30T11:03:05.855Z,50.63
2023-06-30T11:05:34.705Z,47.88
2023-06-30T11:08:07.623Z,50.42
2023-06-30T11:10:46.118Z,49.20
2023-06-30T11:13:13.682Z,48.60
2023-06-30T11:15:42.713Z,43.90
2023-06-30T11:18:14.546Z,42.58
2023-06-30T11:21:00.293Z,47.55
2023-06-30T11:23:29.078Z,46.78
2023-06-30T11:25:59.230Z,42.90
2023-06-30T11:28:27.656Z,45.83
2023-06-30T11:30:55.119Z,45.90
2023-06-30T11:33:22.558Z,40.67
2023-06-30T11:35:54.240Z,41.70
2023-06-30T11:38:21.923Z,41.00
2023-06-30T11:40:51.122Z,41.00
2023-06-30T11:43:23.184Z,39.70
2023-06-30T11:46:02.534Z,38.88
2023-06-30T11:48:33.055Z,40.55
2023-06-30T11:51:00.548Z,40.20
2023-06-30T11:53:31.241Z,43.05
2023-06-30T11:55:58.833Z,45.38
2023-06-30T11:58:27.538Z,43.13
2023-06-30T12:00:55.116Z,48.25
2023-06-30T12:03:22.551Z,43.67
2023-06-30T12:05:56.894Z,42.30
2023-06-30T12:08:25.924Z,41.15
2023-06-30T12:10:53.811Z,42.08
2023-06-30T12:13:21.869Z,43.08
2023-06-30T12:15:58.701Z,40.60
2023-06-30T12:18:36.368Z,39.83
2023-06-30T12:21:05.061Z,41.28
2023-06-30T12:23:32.479Z,41.90
2023-06-30T12:25:59.986Z,42.47
2023-06-30T12:28:27.386Z,42.15
2023-06-30T12:30:56.065Z,44.85
2023-06-30T12:33:24.863Z,45.35
2023-06-30T12:35:52.445Z,43.88
2023-06-30T12:38:19.963Z,43.38
2023-06-30T12:40:47.619Z,41.42
2023-06-30T12:43:15.250Z,42.70
2023-06-30T12:45:42.653Z,47.90
2023-06-30T12:48:10.137Z,38.90
2023-06-30T12:50:39.014Z,38.53
2023-06-30T12:53:08.869Z,40.70
2023-06-30T12:55:36.307Z,41.03
2023-06-30T12:58:03.754Z,43.20
2023-06-30T13:00:31.283Z,28.85
2023-06-30T13:02:58.944Z,19.52
2023-06-30T13:05:26.606Z,15.88
2023-06-30T13:07:55.448Z,13.75
2023-06-30T13:10:23.047Z,14.30
2023-06-30T13:12:50.480Z,13.82
2023-06-30T13:15:18.075Z,14.23
2023-06-30T13:17:45.516Z,13.95
2023-06-30T13:20:12.977Z,15.15
2023-06-30T13:22:50.659Z,15.05
2023-06-30T13:25:29.632Z,13.68
2023-06-30T13:27:57.025Z,14.13
2023-06-30T13:30:25.441Z,13.15
2023-06-30T13:32:54.825Z,15.68
2023-06-30T13:35:22.623Z,17.85
2023-06-30T13:37:50.410Z,15.68
2023-06-30T13:40:17.912Z,12.98
2023-06-30T13:42:46.618Z,10.75
2023-06-30T13:45:14.550Z,13.27
2023-06-30T13:47:42.374Z,12.45
2023-06-30T13:50:10.627Z,12.68
2023-06-30T13:52:38.080Z,12.13
2023-06-30T13:55:06.528Z,13.55
2023-06-30T13:57:33.932Z,12.35
2023-06-30T14:00:02.709Z,11.20
2023-06-30T14:02:32.703Z,12.85
2023-06-30T14:05:00.316Z,16.48
2023-06-30T14:07:27.894Z,13.60
2023-06-30T14:09:57.055Z,13.40
2023-06-30T14:12:24.477Z,13.48
2023-06-30T14:14:51.955Z,14.90
2023-06-30T14:17:20.731Z,11.88
2023-06-30T14:19:48.154Z,13.02
2023-06-30T14:22:15.568Z,13.52
2023-06-30T14:24:42.973Z,13.95
2023-06-30T14:27:10.409Z,12.65
2023-06-30T14:29:38.758Z,14.35
2023-06-30T14:32:06.560Z,15.25
2023-06-30T14:34:35.296Z,13.73
2023-06-30T14:37:03.003Z,13.48
2023-06-30T14:39:30.437Z,33.58
2023-06-30T14:42:02.792Z,13.55
2023-06-30T14:44:30.507Z,14.43
2023-06-30T14:46:59.862Z,14.32
2023-06-30T14:49:27.482Z,13.55
2023-06-30T14:51:56.187Z,13.38
2023-06-30T14:54:23.738Z,13.27
2023-06-30T14:56:51.132Z,13.85
2023-06-30T14:59:18.606Z,14.80
2023-06-30T15:01:46.032Z,11.48
2023-06-30T15:04:13.600Z,12.02
2023-06-30T15:06:41.262Z,16.45
2023-06-30T15:09:10.008Z,10.57
2023-06-30T15:11:37.419Z,16.80
2023-06-30T15:14:04.953Z,10.80
2023-06-30T15:16:33.495Z,14.48
2023-06-30T15:19:00.906Z,14.65
2023-06-30T15:21:28.288Z,13.57
2023-06-30T15:23:55.696Z,15.23
2023-06-30T15:26:24.422Z,12.48
2023-06-30T15:28:51.854Z,9.98
2023-06-30T15:31:19.326Z,9.98
2023-06-30T15:33:46.859Z,9.93
2023-06-30T15:36:14.364Z,11.90
2023-06-30T15:38:41.752Z,8.50
2023-06-30T15:41:21.686Z,8.38
2023-06-30T15:43:54.585Z,8.50
2023-06-30T15:46:22.056Z,11.40
2023-06-30T15:48:49.539Z,8.25
2023-06-30T15:51:17.109Z,5.75
2023-06-30T15:53:44.533Z,6.00
2023-06-30T15:56:11.978Z,6.47
2023-06-30T15:58:39.459Z,7.95
2023-06-30T16:01:08.498Z,7.10
2023-06-30T16:03:38.458Z,6.20
2023-06-30T16:06:06.336Z,6.22
2023-06-30T16:08:34.266Z,5.40
2023-06-30T16:11:01.657Z,6.68
2023-06-30T16:13:29.068Z,8.35
2023-06-30T16:15:56.468Z,5.38
2023-06-30T16:18:25.538Z,8.05
2023-06-30T16:20:52.957Z,6.10
2023-06-30T16:23:21.469Z,7.53
2023-06-30T16:25:49.472Z,8.68
2023-06-30T16:28:17.268Z,6.85
2023-06-30T16:30:44.723Z,8.73
2023-06-30T16:33:12.351Z,8.93
2023-06-30T16:35:41.246Z,5.88
2023-06-30T16:38:08.654Z,6.60
2023-06-30T16:40:36.046Z,6.90
2023-06-30T16:43:03.953Z,4.10
2023-06-30T16:45:31.351Z,6.30
2023-06-30T16:47:58.829Z,6.30
2023-06-30T16:50:26.225Z,8.93
2023-06-30T16:52:54.915Z,8.77
2023-06-30T16:55:22.304Z,5.75
2023-06-30T16:57:49.701Z,3.83
2023-06-30T17:00:18.066Z,6.18
2023-06-30T17:02:45.612Z,4.78
2023-06-30T17:05:14.640Z,5.32
2023-06-30T17:07:42.273Z,6.63
2023-06-30T17:10:13.523Z,6.97
2023-06-30T17:12:40.994Z,5.45
2023-06-30T17:15:10.483Z,3.72
2023-06-30T17:17:38.154Z,5.20
2023-06-30T17:20:06.414Z,10.00
2023-06-30T17:22:33.919Z,5.60
2023-06-30T17:25:05.121Z,6.03
2023-06-30T17:27:36.957Z,6.70
2023-06-30T17:30:05.043Z,6.00
2023-06-30T17:32:32.493Z,11.23
2023-06-30T17:34:59.957Z,5.75
2023-06-30T17:37:27.366Z,8.18
2023-06-30T17:39:54.958Z,5.22
2023-06-30T17:42:22.471Z,4.85
2023-06-30T17:44:51.262Z,5.35
2023-06-30T17:47:18.739Z,4.57
2023-06-30T17:49:46.635Z,6.15
2023-06-30T17:52:14.122Z,4.50
2023-06-30T17:54:41.582Z,4.03
2023-06-30T17:57:09.246Z,3.92
2023-06-30T17:59:36.638Z,4.53
2023-06-30T18:02:06.594Z,5.57
2023-06-30T18:04:34.371Z,3.47
2023-06-30T18:07:09.843Z,6.18
2023-06-30T18:09:39.152Z,4.43
2023-06-30T18:12:07.782Z,5.05
2023-06-30T18:14:35.489Z,6.45
2023-06-30T18:17:02.950Z,2.67
2023-06-30T18:19:31.916Z,3.67
2023-06-30T18:21:59.368Z,3.17
2023-06-30T18:24:27.030Z,7.32
2023-06-30T18:26:54.469Z,3.80
2023-06-30T18:29:23.858Z,4.53
2023-06-30T18:31:52.368Z,5.60
2023-06-30T18:34:20.221Z,5.75
2023-06-30T18:36:49.060Z,4.15
2023-06-30T18:39:16.769Z,4.05
2023-06-30T18:41:44.377Z,6.60
2023-06-30T18:44:11.765Z,3.97
2023-06-30T18:46:39.308Z,4.65
2023-06-30T18:49:09.631Z,5.68
2023-06-30T18:51:39.855Z,5.63
2023-06-30T18:54:08.616Z,4.63
2023-06-30T18:56:36.042Z,3.92
2023-06-30T18:59:03.831Z,4.70
2023-06-30T19:01:31.336Z,3.78
2023-06-30T19:03:59.070Z,4.72
2023-06-30T19:06:27.214Z,3.60
2023-06-30T19:08:55.305Z,4.43
2023-06-30T19:11:24.678Z,6.35
2023-06-30T19:13:52.519Z,5.75
2023-06-30T19:16:20.249Z,4.88
2023-06-30T19:18:47.773Z,6.80
2023-06-30T19:21:15.548Z,4.80
2023-06-30T19:23:43.189Z,4.60
2023-06-30T19:26:11.120Z,6.80
2023-06-30T19:28:41.413Z,3.65
2023-06-30T19:31:08.909Z,5.60
2023-06-30T19:33:37.725Z,7.03
2023-06-30T19:36:06.228Z,7.05
2023-06-30T19:38:33.933Z,5.03
2023-06-30T19:41:01.504Z,5.97
2023-06-30T19:43:28.948Z,5.68
2023-06-30T19:45:59.403Z,5.40
2023-06-30T19:48:26.834Z,5.00
2023-06-30T19:50:54.358Z,5.95
2023-06-30T19:53:21.804Z,5.45
2023-06-30T19:55:50.208Z,5.40
2023-06-30T19:58:17.838Z,4.38
2023-06-30T20:00:45.222Z,5.10
2023-06-30T20:03:14.095Z,5.30
2023-06-30T20:05:41.647Z,3.88
2023-06-30T20:08:09.193Z,6.30
2023-06-30T20:10:36.633Z,5.60
2023-06-30T20:13:05.447Z,6.57
2023-06-30T20:15:34.267Z,6.38
2023-06-30T20:18:01.802Z,7.97
2023-06-30T20:20:30.644Z,7.55
2023-06-30T20:22:58.026Z,7.22
2023-06-30T20:25:25.541Z,7.43
2023-06-30T20:27:53.012Z,5.85
2023-06-30T20:30:20.560Z,7.07
2023-06-30T20:32:48.050Z,8.57
2023-06-30T20:35:18.253Z,9.88
2023-06-30T20:37:47.188Z,11.10
2023-06-30T20:40:14.758Z,8.60
2023-06-30T20:42:42.194Z,8.93
2023-06-30T20:45:10.444Z,9.05
2023-06-30T20:47:38.312Z,8.20
2023-06-30T20:50:08.963Z,7.25
2023-06-30T20:52:36.432Z,6.95
2023-06-30T20:55:05.693Z,5.85
2023-06-30T20:57:33.622Z,8.68
2023-06-30T21:00:01.009Z,6.78
2023-06-30T21:02:28.465Z,6.63
2023-06-30T21:04:58.465Z,7.03
2023-06-30T21:07:26.167Z,6.38
2023-06-30T21:09:53.544Z,9.15
2023-06-30T21:12:22.252Z,7.53
2023-06-30T21:14:49.702Z,7.63
2023-06-30T21:17:17.097Z,8.70
2023-06-30T21:19:44.495Z,8.90
2023-06-30T21:22:11.969Z,6.30
2023-06-30T21:24:39.378Z,7.47
2023-06-30T21:27:07.172Z,8.25
2023-06-30T21:29:35.911Z,7.00
2023-06-30T21:32:03.558Z,7.82
2023-06-30T21:34:35.560Z,6.65
2023-06-30T21:37:02.976Z,5.57
2023-06-30T21:39:30.359Z,7.88
2023-06-30T21:41:58.840Z,7.53
2023-06-30T21:44:26.275Z,6.95
2023-06-30T21:46:55.029Z,8.00
2023-06-30T21:49:22.444Z,7.75
2023-06-30T21:51:49.837Z,9.50
2023-06-30T21:54:27.216Z,7.75
2023-06-30T21:56:58.849Z,9.15
2023-06-30T21:59:26.352Z,7.75
2023-06-30T22:01:55.155Z,8.05
2023-06-30T22:04:22.632Z,9.70
2023-06-30T22:06:50.043Z,7.93
2023-06-30T22:09:17.439Z,9.02
2023-06-30T22:11:45.006Z,7.97
2023-06-30T22:14:13.190Z,9.38
2023-06-30T22:16:40.647Z,7.22
2023-06-30T22:19:09.401Z,7.20
2023-06-30T22:21:36.834Z,8.38
2023-06-30T22:24:04.228Z,6.82
2023-06-30T22:26:31.653Z,7.75
2023-06-30T22:28:59.083Z,6.72
2023-06-30T22:31:26.570Z,8.20
2023-06-30T22:33:53.993Z,8.48
2023-06-30T22:36:22.725Z,9.40
2023-06-30T22:38:51.117Z,6.70
2023-06-30T22:41:18.578Z,6.03
2023-06-30T22:43:46.264Z,6.47
2023-06-30T22:46:13.691Z,6.55
2023-06-30T22:48:41.669Z,6.45
2023-06-30T22:51:09.119Z,7.70
2023-06-30T22:53:37.858Z,7.07
2023-06-30T22:56:07.342Z,8.88
2023-06-30T22:58:34.788Z,7.47
2023-06-30T23:01:02.259Z,8.93
2023-06-30T23:03:29.912Z,10.52
2023-06-30T23:05:57.380Z,11.07
2023-06-30T23:08:24.797Z,6.68
2023-06-30T23:10:53.998Z,9.65
2023-06-30T23:13:21.408Z,7.28
2023-06-30T23:15:49.129Z,6.57
2023-06-30T23:18:20.621Z,8.25
2023-06-30T23:20:48.481Z,6.35
2023-06-30T23:23:16.270Z,8.85
2023-06-30T23:25:43.706Z,8.52
2023-06-30T23:28:12.418Z,7.75
2023-06-30T23:30:40.699Z,7.72
2023-06-30T23:33:08.503Z,10.20
2023-06-30T23:35:36.056Z,7.45
2023-06-30T23:38:03.461Z,7.50
2023-06-30T23:40:30.897Z,8.30
2023-06-30T23:42:58.379Z,7.65
2023-06-30T23:45:27.061Z,14.05
2023-06-30T23:47:55.956Z,7.95
2023-06-30T23:50:23.520Z,12.38
2023-06-30T23:52:51.329Z,8.82
2023-06-30T23:55:18.752Z,9.13
2023-06-30T23:57:46.670Z,11.85
